sensor_id;sensor_type;location;lat;lon;timestamp;temperature;humidity
80258;DHT22;69565;37.974;23.708;2023-08-01T00:02:10;31.00;29.60
80258;DHT22;69565;37.974;23.708;2023-08-01T00:04:36;31.00;29.60
80258;DHT22;69565;37.974;23.708;2023-08-01T00:07:02;31.10;29.60
80258;DHT22;69565;37.974;23.708;2023-08-01T00:09:28;31.00;29.60
80258;DHT22;69565;37.974;23.708;2023-08-01T00:11:53;31.00;29.60
80258;DHT22;69565;37.974;23.708;2023-08-01T00:14:20;31.00;29.60
80258;DHT22;69565;37.974;23.708;2023-08-01T00:16:50;31.00;29.60
80258;DHT22;69565;37.974;23.708;2023-08-01T00:19:15;31.00;29.70
80258;DHT22;69565;37.974;23.708;2023-08-01T00:21:41;31.00;29.70
80258;DHT22;69565;37.974;23.708;2023-08-01T00:24:07;31.00;29.70
80258;DHT22;69565;37.974;23.708;2023-08-01T00:26:34;31.00;29.70
80258;DHT22;69565;37.974;23.708;2023-08-01T00:28:59;31.00;29.80
80258;DHT22;69565;37.974;23.708;2023-08-01T00:31:25;31.00;29.80
80258;DHT22;69565;37.974;23.708;2023-08-01T00:33:51;31.00;29.70
80258;DHT22;69565;37.974;23.708;2023-08-01T00:36:16;31.00;29.80
80258;DHT22;69565;37.974;23.708;2023-08-01T00:38:42;31.00;29.90
80258;DHT22;69565;37.974;23.708;2023-08-01T00:41:09;31.00;30.00
80258;DHT22;69565;37.974;23.708;2023-08-01T00:43:35;31.00;30.00
80258;DHT22;69565;37.974;23.708;2023-08-01T00:46:03;31.00;30.10
80258;DHT22;69565;37.974;23.708;2023-08-01T00:48:30;31.00;30.20
80258;DHT22;69565;37.974;23.708;2023-08-01T00:50:59;31.00;30.30
80258;DHT22;69565;37.974;23.708;2023-08-01T00:53:26;31.00;30.40
80258;DHT22;69565;37.974;23.708;2023-08-01T00:55:52;31.00;30.50
80258;DHT22;69565;37.974;23.708;2023-08-01T00:58:19;30.90;30.60
80258;DHT22;69565;37.974;23.708;2023-08-01T01:00:46;30.90;30.60
80258;DHT22;69565;37.974;23.708;2023-08-01T01:03:12;30.90;30.70
80258;DHT22;69565;37.974;23.708;2023-08-01T01:05:43;31.00;30.80
80258;DHT22;69565;37.974;23.708;2023-08-01T01:08:13;31.00;30.80
80258;DHT22;69565;37.974;23.708;2023-08-01T01:10:39;31.00;30.90
80258;DHT22;69565;37.974;23.708;2023-08-01T01:13:04;31.00;31.10
80258;DHT22;69565;37.974;23.708;2023-08-01T01:15:30;30.90;31.00
80258;DHT22;69565;37.974;23.708;2023-08-01T01:17:56;31.00;31.20
80258;DHT22;69565;37.974;23.708;2023-08-01T01:20:24;30.90;31.30
80258;DHT22;69565;37.974;23.708;2023-08-01T01:22:52;30.90;31.40
80258;DHT22;69565;37.974;23.708;2023-08-01T01:25:20;30.90;31.50
80258;DHT22;69565;37.974;23.708;2023-08-01T01:27:49;30.90;31.70
80258;DHT22;69565;37.974;23.708;2023-08-01T01:30:15;30.90;31.70
80258;DHT22;69565;37.974;23.708;2023-08-01T01:32:41;30.90;31.70
80258;DHT22;69565;37.974;23.708;2023-08-01T01:35:07;30.90;31.90
80258;DHT22;69565;37.974;23.708;2023-08-01T01:37:33;30.90;32.00
80258;DHT22;69565;37.974;23.708;2023-08-01T01:39:59;30.90;32.10
80258;DHT22;69565;37.974;23.708;2023-08-01T01:42:24;30.90;32.30
80258;DHT22;69565;37.974;23.708;2023-08-01T01:44:50;30.90;32.40
80258;DHT22;69565;37.974;23.708;2023-08-01T01:47:17;30.90;32.40
80258;DHT22;69565;37.974;23.708;2023-08-01T01:49:43;30.90;32.50
80258;DHT22;69565;37.974;23.708;2023-08-01T01:52:08;30.80;32.50
80258;DHT22;69565;37.974;23.708;2023-08-01T01:54:34;30.80;32.60
80258;DHT22;69565;37.974;23.708;2023-08-01T01:57:00;30.80;32.70
80258;DHT22;69565;37.974;23.708;2023-08-01T01:59:25;30.90;32.80
80258;DHT22;69565;37.974;23.708;2023-08-01T02:01:51;30.90;32.90
80258;DHT22;69565;37.974;23.708;2023-08-01T02:04:16;30.80;32.90
80258;DHT22;69565;37.974;23.708;2023-08-01T02:06:43;30.90;33.20
80258;DHT22;69565;37.974;23.708;2023-08-01T02:09:09;30.90;34.40
80258;DHT22;69565;37.974;23.708;2023-08-01T02:11:35;30.90;33.50
80258;DHT22;69565;37.974;23.708;2023-08-01T02:14:00;30.90;33.60
80258;DHT22;69565;37.974;23.708;2023-08-01T02:16:28;30.80;33.70
80258;DHT22;69565;37.974;23.708;2023-08-01T02:18:54;30.80;33.80
80258;DHT22;69565;37.974;23.708;2023-08-01T02:21:19;30.80;33.90
80258;DHT22;69565;37.974;23.708;2023-08-01T02:23:45;30.80;33.90
80258;DHT22;69565;37.974;23.708;2023-08-01T02:26:11;30.80;33.90
80258;DHT22;69565;37.974;23.708;2023-08-01T02:28:36;30.80;34.10
80258;DHT22;69565;37.974;23.708;2023-08-01T02:31:02;30.80;34.10
80258;DHT22;69565;37.974;23.708;2023-08-01T02:33:28;30.80;34.20
80258;DHT22;69565;37.974;23.708;2023-08-01T02:35:53;30.80;34.20
80258;DHT22;69565;37.974;23.708;2023-08-01T02:38:19;30.80;34.20
80258;DHT22;69565;37.974;23.708;2023-08-01T02:40:45;30.80;34.30
80258;DHT22;69565;37.974;23.708;2023-08-01T02:43:10;30.80;34.30
80258;DHT22;69565;37.974;23.708;2023-08-01T02:45:36;30.80;34.40
80258;DHT22;69565;37.974;23.708;2023-08-01T02:48:01;30.70;34.40
80258;DHT22;69565;37.974;23.708;2023-08-01T02:50:27;30.70;34.50
80258;DHT22;69565;37.974;23.708;2023-08-01T02:52:53;30.70;34.50
80258;DHT22;69565;37.974;23.708;2023-08-01T02:55:19;30.70;34.50
80258;DHT22;69565;37.974;23.708;2023-08-01T02:57:44;30.70;34.60
80258;DHT22;69565;37.974;23.708;2023-08-01T03:00:10;30.70;34.80
80258;DHT22;69565;37.974;23.708;2023-08-01T03:02:38;30.70;34.80
80258;DHT22;69565;37.974;23.708;2023-08-01T03:05:06;30.70;35.00
80258;DHT22;69565;37.974;23.708;2023-08-01T03:07:33;30.70;34.90
80258;DHT22;69565;37.974;23.708;2023-08-01T03:09:58;30.70;35.10
80258;DHT22;69565;37.974;23.708;2023-08-01T03:12:24;30.70;35.10
80258;DHT22;69565;37.974;23.708;2023-08-01T03:14:50;30.70;35.10
80258;DHT22;69565;37.974;23.708;2023-08-01T03:17:16;30.70;35.20
80258;DHT22;69565;37.974;23.708;2023-08-01T03:19:42;30.70;35.20
80258;DHT22;69565;37.974;23.708;2023-08-01T03:22:08;30.70;35.30
80258;DHT22;69565;37.974;23.708;2023-08-01T03:24:34;30.70;36.30
80258;DHT22;69565;37.974;23.708;2023-08-01T03:27:00;30.70;35.30
80258;DHT22;69565;37.974;23.708;2023-08-01T03:29:26;30.70;35.40
80258;DHT22;69565;37.974;23.708;2023-08-01T03:31:52;30.70;35.50
80258;DHT22;69565;37.974;23.708;2023-08-01T03:34:18;30.60;35.60
80258;DHT22;69565;37.974;23.708;2023-08-01T03:36:44;30.60;35.60
80258;DHT22;69565;37.974;23.708;2023-08-01T03:39:09;30.60;35.80
80258;DHT22;69565;37.974;23.708;2023-08-01T03:41:36;30.60;35.70
80258;DHT22;69565;37.974;23.708;2023-08-01T03:44:03;30.60;35.80
80258;DHT22;69565;37.974;23.708;2023-08-01T03:46:28;30.70;35.90
80258;DHT22;69565;37.974;23.708;2023-08-01T03:48:54;30.60;35.90
80258;DHT22;69565;37.974;23.708;2023-08-01T03:51:20;30.60;35.90
80258;DHT22;69565;37.974;23.708;2023-08-01T03:53:46;30.60;35.90
80258;DHT22;69565;37.974;23.708;2023-08-01T03:56:12;30.60;36.00
80258;DHT22;69565;37.974;23.708;2023-08-01T03:58:37;30.60;36.00
80258;DHT22;69565;37.974;23.708;2023-08-01T04:01:03;30.60;36.00
80258;DHT22;69565;37.974;23.708;2023-08-01T04:03:29;30.70;36.10
80258;DHT22;69565;37.974;23.708;2023-08-01T04:05:54;30.70;36.50
80258;DHT22;69565;37.974;23.708;2023-08-01T04:08:20;30.80;38.40
80258;DHT22;69565;37.974;23.708;2023-08-01T04:10:46;30.80;37.00
80258;DHT22;69565;37.974;23.708;2023-08-01T04:13:12;30.90;36.60
80258;DHT22;69565;37.974;23.708;2023-08-01T04:15:37;30.80;36.20
80258;DHT22;69565;37.974;23.708;2023-08-01T04:18:03;30.90;36.40
80258;DHT22;69565;37.974;23.708;2023-08-01T04:20:29;30.90;36.30
80258;DHT22;69565;37.974;23.708;2023-08-01T04:22:54;30.80;36.40
80258;DHT22;69565;37.974;23.708;2023-08-01T04:25:20;30.80;36.50
80258;DHT22;69565;37.974;23.708;2023-08-01T04:27:46;30.90;36.50
80258;DHT22;69565;37.974;23.708;2023-08-01T04:30:11;30.80;36.50
80258;DHT22;69565;37.974;23.708;2023-08-01T04:32:37;30.80;36.60
80258;DHT22;69565;37.974;23.708;2023-08-01T04:35:03;30.80;36.60
80258;DHT22;69565;37.974;23.708;2023-08-01T04:37:29;30.80;36.60
80258;DHT22;69565;37.974;23.708;2023-08-01T04:39:55;30.90;36.70
80258;DHT22;69565;37.974;23.708;2023-08-01T04:42:20;30.90;36.70
80258;DHT22;69565;37.974;23.708;2023-08-01T04:44:46;31.00;36.50
80258;DHT22;69565;37.974;23.708;2023-08-01T04:47:14;31.00;36.40
80258;DHT22;69565;37.974;23.708;2023-08-01T04:49:39;31.10;36.40
80258;DHT22;69565;37.974;23.708;2023-08-01T04:52:06;31.10;36.30
80258;DHT22;69565;37.974;23.708;2023-08-01T04:54:31;31.10;36.20
80258;DHT22;69565;37.974;23.708;2023-08-01T04:56:57;31.10;36.30
80258;DHT22;69565;37.974;23.708;2023-08-01T04:59:23;31.20;36.30
80258;DHT22;69565;37.974;23.708;2023-08-01T05:01:48;31.30;36.10
80258;DHT22;69565;37.974;23.708;2023-08-01T05:04:14;31.30;36.10
80258;DHT22;69565;37.974;23.708;2023-08-01T05:06:40;31.20;36.20
80258;DHT22;69565;37.974;23.708;2023-08-01T05:09:06;31.30;36.10
80258;DHT22;69565;37.974;23.708;2023-08-01T05:11:32;31.30;36.20
80258;DHT22;69565;37.974;23.708;2023-08-01T05:13:58;31.30;36.20
80258;DHT22;69565;37.974;23.708;2023-08-01T05:16:23;31.40;36.20
80258;DHT22;69565;37.974;23.708;2023-08-01T05:18:49;31.40;36.00
80258;DHT22;69565;37.974;23.708;2023-08-01T05:21:15;31.50;36.00
80258;DHT22;69565;37.974;23.708;2023-08-01T05:23:40;31.50;35.80
80258;DHT22;69565;37.974;23.708;2023-08-01T05:26:06;31.50;35.90
80258;DHT22;69565;37.974;23.708;2023-08-01T05:28:32;31.60;36.00
80258;DHT22;69565;37.974;23.708;2023-08-01T05:30:58;31.60;36.00
80258;DHT22;69565;37.974;23.708;2023-08-01T05:33:23;31.70;35.90
80258;DHT22;69565;37.974;23.708;2023-08-01T05:35:49;31.70;35.80
80258;DHT22;69565;37.974;23.708;2023-08-01T05:38:16;31.70;35.70
80258;DHT22;69565;37.974;23.708;2023-08-01T05:40:41;31.70;35.70
80258;DHT22;69565;37.974;23.708;2023-08-01T05:43:07;31.70;35.60
80258;DHT22;69565;37.974;23.708;2023-08-01T05:45:34;31.70;35.50
80258;DHT22;69565;37.974;23.708;2023-08-01T05:48:01;31.70;35.40
80258;DHT22;69565;37.974;23.708;2023-08-01T05:50:27;31.70;35.50
80258;DHT22;69565;37.974;23.708;2023-08-01T05:52:53;31.70;35.30
80258;DHT22;69565;37.974;23.708;2023-08-01T05:55:19;31.70;35.30
80258;DHT22;69565;37.974;23.708;2023-08-01T05:57:45;31.70;35.30
80258;DHT22;69565;37.974;23.708;2023-08-01T06:00:11;31.80;35.20
80258;DHT22;69565;37.974;23.708;2023-08-01T06:02:37;31.80;35.20
80258;DHT22;69565;37.974;23.708;2023-08-01T06:05:03;31.80;35.20
80258;DHT22;69565;37.974;23.708;2023-08-01T06:07:29;31.80;35.10
80258;DHT22;69565;37.974;23.708;2023-08-01T06:09:55;31.90;35.10
80258;DHT22;69565;37.974;23.708;2023-08-01T06:12:20;31.90;35.10
80258;DHT22;69565;37.974;23.708;2023-08-01T06:14:47;31.90;35.10
80258;DHT22;69565;37.974;23.708;2023-08-01T06:17:13;32.00;35.20
80258;DHT22;69565;37.974;23.708;2023-08-01T06:19:39;32.00;35.20
80258;DHT22;69565;37.974;23.708;2023-08-01T06:22:05;32.00;35.20
80258;DHT22;69565;37.974;23.708;2023-08-01T06:24:31;32.00;35.30
80258;DHT22;69565;37.974;23.708;2023-08-01T06:26:57;32.10;35.30
80258;DHT22;69565;37.974;23.708;2023-08-01T06:29:22;32.10;35.20
80258;DHT22;69565;37.974;23.708;2023-08-01T06:31:50;32.20;35.20
80258;DHT22;69565;37.974;23.708;2023-08-01T06:34:16;32.20;35.10
80258;DHT22;69565;37.974;23.708;2023-08-01T06:36:41;32.20;35.10
80258;DHT22;69565;37.974;23.708;2023-08-01T06:39:07;32.20;35.10
80258;DHT22;69565;37.974;23.708;2023-08-01T06:41:33;32.20;35.10
80258;DHT22;69565;37.974;23.708;2023-08-01T06:43:59;32.30;35.10
80258;DHT22;69565;37.974;23.708;2023-08-01T06:46:25;32.30;34.90
80258;DHT22;69565;37.974;23.708;2023-08-01T06:48:50;32.20;35.10
80258;DHT22;69565;37.974;23.708;2023-08-01T06:51:16;32.30;34.90
80258;DHT22;69565;37.974;23.708;2023-08-01T06:53:42;32.30;34.90
80258;DHT22;69565;37.974;23.708;2023-08-01T06:56:08;32.30;35.00
80258;DHT22;69565;37.974;23.708;2023-08-01T06:58:34;32.30;34.90
80258;DHT22;69565;37.974;23.708;2023-08-01T07:00:59;32.30;34.80
80258;DHT22;69565;37.974;23.708;2023-08-01T07:03:25;32.30;34.80
80258;DHT22;69565;37.974;23.708;2023-08-01T07:05:52;32.40;34.60
80258;DHT22;69565;37.974;23.708;2023-08-01T07:08:18;32.40;34.40
80258;DHT22;69565;37.974;23.708;2023-08-01T07:10:46;32.40;34.40
80258;DHT22;69565;37.974;23.708;2023-08-01T07:13:12;32.40;34.20
80258;DHT22;69565;37.974;23.708;2023-08-01T07:15:38;32.50;34.10
80258;DHT22;69565;37.974;23.708;2023-08-01T07:18:03;32.50;34.10
80258;DHT22;69565;37.974;23.708;2023-08-01T07:20:29;32.50;34.00
80258;DHT22;69565;37.974;23.708;2023-08-01T07:22:55;32.60;33.90
80258;DHT22;69565;37.974;23.708;2023-08-01T07:25:23;32.60;33.90
80258;DHT22;69565;37.974;23.708;2023-08-01T07:27:51;32.60;33.80
80258;DHT22;69565;37.974;23.708;2023-08-01T07:30:17;32.60;33.70
80258;DHT22;69565;37.974;23.708;2023-08-01T07:32:42;32.60;33.70
80258;DHT22;69565;37.974;23.708;2023-08-01T07:35:09;32.60;33.80
80258;DHT22;69565;37.974;23.708;2023-08-01T07:37:35;32.70;33.60
80258;DHT22;69565;37.974;23.708;2023-08-01T07:40:00;32.70;33.60
80258;DHT22;69565;37.974;23.708;2023-08-01T07:42:26;32.70;33.70
80258;DHT22;69565;37.974;23.708;2023-08-01T07:44:52;32.70;33.60
80258;DHT22;69565;37.974;23.708;2023-08-01T07:47:17;32.70;33.50
80258;DHT22;69565;37.974;23.708;2023-08-01T07:49:49;32.70;33.60
80258;DHT22;69565;37.974;23.708;2023-08-01T07:52:28;32.70;33.70
80258;DHT22;69565;37.974;23.708;2023-08-01T07:55:04;32.60;33.70
80258;DHT22;69565;37.974;23.708;2023-08-01T07:57:30;32.70;33.90
80258;DHT22;69565;37.974;23.708;2023-08-01T07:59:56;32.70;34.10
80258;DHT22;69565;37.974;23.708;2023-08-01T08:02:22;32.70;33.90
80258;DHT22;69565;37.974;23.708;2023-08-01T08:04:48;32.70;33.90
80258;DHT22;69565;37.974;23.708;2023-08-01T08:07:19;32.70;34.00
80258;DHT22;69565;37.974;23.708;2023-08-01T08:09:45;32.70;33.90
80258;DHT22;69565;37.974;23.708;2023-08-01T08:12:11;32.60;33.70
80258;DHT22;69565;37.974;23.708;2023-08-01T08:14:36;32.70;33.80
80258;DHT22;69565;37.974;23.708;2023-08-01T08:17:04;32.70;33.70
80258;DHT22;69565;37.974;23.708;2023-08-01T08:19:29;32.70;33.70
80258;DHT22;69565;37.974;23.708;2023-08-01T08:21:55;32.70;33.40
80258;DHT22;69565;37.974;23.708;2023-08-01T08:24:21;32.70;33.50
80258;DHT22;69565;37.974;23.708;2023-08-01T08:26:46;32.60;34.60
80258;DHT22;69565;37.974;23.708;2023-08-01T08:29:12;32.50;33.60
80258;DHT22;69565;37.974;23.708;2023-08-01T08:31:38;32.50;33.90
80258;DHT22;69565;37.974;23.708;2023-08-01T08:34:03;32.60;33.90
80258;DHT22;69565;37.974;23.708;2023-08-01T08:36:29;32.70;33.70
80258;DHT22;69565;37.974;23.708;2023-08-01T08:38:55;32.70;33.70
80258;DHT22;69565;37.974;23.708;2023-08-01T08:41:22;32.70;33.50
80258;DHT22;69565;37.974;23.708;2023-08-01T08:43:49;32.80;33.70
80258;DHT22;69565;37.974;23.708;2023-08-01T08:46:19;32.80;33.90
80258;DHT22;69565;37.974;23.708;2023-08-01T08:48:46;32.80;33.90
80258;DHT22;69565;37.974;23.708;2023-08-01T08:51:13;32.80;33.80
80258;DHT22;69565;37.974;23.708;2023-08-01T08:53:40;32.70;33.80
80258;DHT22;69565;37.974;23.708;2023-08-01T08:56:08;32.70;33.70
80258;DHT22;69565;37.974;23.708;2023-08-01T08:58:36;32.60;33.80
80258;DHT22;69565;37.974;23.708;2023-08-01T09:01:05;32.60;34.00
80258;DHT22;69565;37.974;23.708;2023-08-01T09:03:32;32.60;34.00
80258;DHT22;69565;37.974;23.708;2023-08-01T09:06:04;32.60;34.00
80258;DHT22;69565;37.974;23.708;2023-08-01T09:08:35;32.60;33.80
80258;DHT22;69565;37.974;23.708;2023-08-01T09:11:01;32.60;33.50
80258;DHT22;69565;37.974;23.708;2023-08-01T09:13:28;32.70;33.50
80258;DHT22;69565;37.974;23.708;2023-08-01T09:15:54;32.60;33.50
80258;DHT22;69565;37.974;23.708;2023-08-01T09:18:21;32.60;33.50
80258;DHT22;69565;37.974;23.708;2023-08-01T09:20:48;32.60;33.90
80258;DHT22;69565;37.974;23.708;2023-08-01T09:23:15;32.60;33.90
80258;DHT22;69565;37.974;23.708;2023-08-01T09:25:41;32.60;34.90
80258;DHT22;69565;37.974;23.708;2023-08-01T09:28:16;32.60;33.70
80258;DHT22;69565;37.974;23.708;2023-08-01T09:33:14;32.60;33.40
80258;DHT22;69565;37.974;23.708;2023-08-01T09:35:40;32.60;33.40
80258;DHT22;69565;37.974;23.708;2023-08-01T09:38:10;32.60;33.10
80258;DHT22;69565;37.974;23.708;2023-08-01T09:40:39;32.60;33.20
80258;DHT22;69565;37.974;23.708;2023-08-01T09:43:05;32.70;33.30
80258;DHT22;69565;37.974;23.708;2023-08-01T09:45:31;32.70;33.00
80258;DHT22;69565;37.974;23.708;2023-08-01T09:47:57;32.60;32.90
80258;DHT22;69565;37.974;23.708;2023-08-01T09:50:24;32.60;32.90
80258;DHT22;69565;37.974;23.708;2023-08-01T09:52:50;32.50;33.00
80258;DHT22;69565;37.974;23.708;2023-08-01T09:55:47;32.60;33.10
80258;DHT22;69565;37.974;23.708;2023-08-01T09:58:17;32.60;32.90
80258;DHT22;69565;37.974;23.708;2023-08-01T10:00:48;32.70;32.60
80258;DHT22;69565;37.974;23.708;2023-08-01T10:03:14;32.60;32.60
80258;DHT22;69565;37.974;23.708;2023-08-01T10:05:40;32.60;32.50
80258;DHT22;69565;37.974;23.708;2023-08-01T10:08:07;32.60;32.50
80258;DHT22;69565;37.974;23.708;2023-08-01T10:10:33;32.60;32.40
80258;DHT22;69565;37.974;23.708;2023-08-01T10:13:01;32.60;33.00
80258;DHT22;69565;37.974;23.708;2023-08-01T10:15:28;32.50;32.00
80258;DHT22;69565;37.974;23.708;2023-08-01T10:17:54;32.50;32.00
80258;DHT22;69565;37.974;23.708;2023-08-01T10:20:21;32.50;32.10
80258;DHT22;69565;37.974;23.708;2023-08-01T10:22:49;32.50;32.10
80258;DHT22;69565;37.974;23.708;2023-08-01T10:25:16;32.50;32.10
80258;DHT22;69565;37.974;23.708;2023-08-01T10:27:42;32.50;32.10
80258;DHT22;69565;37.974;23.708;2023-08-01T10:30:08;32.50;32.20
80258;DHT22;69565;37.974;23.708;2023-08-01T10:32:40;32.40;32.30
80258;DHT22;69565;37.974;23.708;2023-08-01T10:35:07;32.40;32.30
80258;DHT22;69565;37.974;23.708;2023-08-01T10:37:42;32.40;32.40
80258;DHT22;69565;37.974;23.708;2023-08-01T10:40:09;32.40;32.60
80258;DHT22;69565;37.974;23.708;2023-08-01T10:42:42;32.40;32.70
80258;DHT22;69565;37.974;23.708;2023-08-01T10:45:23;32.40;32.80
80258;DHT22;69565;37.974;23.708;2023-08-01T10:47:49;32.40;33.00
80258;DHT22;69565;37.974;23.708;2023-08-01T10:50:16;32.30;33.00
80258;DHT22;69565;37.974;23.708;2023-08-01T10:52:43;32.40;33.10
80258;DHT22;69565;37.974;23.708;2023-08-01T10:55:09;32.40;33.10
80258;DHT22;69565;37.974;23.708;2023-08-01T10:57:37;32.30;33.20
80258;DHT22;69565;37.974;23.708;2023-08-01T11:00:05;32.30;33.20
80258;DHT22;69565;37.974;23.708;2023-08-01T11:02:36;32.40;33.30
80258;DHT22;69565;37.974;23.708;2023-08-01T11:05:11;32.40;33.50
80258;DHT22;69565;37.974;23.708;2023-08-01T11:07:37;32.30;34.60
80258;DHT22;69565;37.974;23.708;2023-08-01T11:10:08;32.30;33.70
80258;DHT22;69565;37.974;23.708;2023-08-01T11:12:39;32.30;33.80
80258;DHT22;69565;37.974;23.708;2023-08-01T11:15:06;32.30;33.80
80258;DHT22;69565;37.974;23.708;2023-08-01T11:17:36;32.20;33.90
80258;DHT22;69565;37.974;23.708;2023-08-01T11:20:07;32.30;33.90
80258;DHT22;69565;37.974;23.708;2023-08-01T11:22:34;32.30;33.90
80258;DHT22;69565;37.974;23.708;2023-08-01T11:25:00;32.30;33.90
80258;DHT22;69565;37.974;23.708;2023-08-01T11:27:26;32.30;33.90
80258;DHT22;69565;37.974;23.708;2023-08-01T11:29:53;32.40;34.00
80258;DHT22;69565;37.974;23.708;2023-08-01T11:32:19;32.40;34.00
80258;DHT22;69565;37.974;23.708;2023-08-01T11:34:49;32.40;34.20
80258;DHT22;69565;37.974;23.708;2023-08-01T11:37:17;32.40;34.40
80258;DHT22;69565;37.974;23.708;2023-08-01T11:39:44;32.40;34.80
80258;DHT22;69565;37.974;23.708;2023-08-01T11:42:16;32.40;35.10
80258;DHT22;69565;37.974;23.708;2023-08-01T11:44:43;32.40;35.40
80258;DHT22;69565;37.974;23.708;2023-08-01T11:47:16;32.40;35.80
80258;DHT22;69565;37.974;23.708;2023-08-01T11:49:49;32.40;36.00
80258;DHT22;69565;37.974;23.708;2023-08-01T11:52:26;32.40;36.10
80258;DHT22;69565;37.974;23.708;2023-08-01T11:54:52;32.40;36.30
80258;DHT22;69565;37.974;23.708;2023-08-01T11:57:20;32.40;36.60
80258;DHT22;69565;37.974;23.708;2023-08-01T11:59:48;32.30;36.50
80258;DHT22;69565;37.974;23.708;2023-08-01T12:02:24;32.30;36.60
80258;DHT22;69565;37.974;23.708;2023-08-01T12:04:52;32.30;36.70
80258;DHT22;69565;37.974;23.708;2023-08-01T12:07:18;32.30;36.90
80258;DHT22;69565;37.974;23.708;2023-08-01T12:10:04;32.30;37.20
80258;DHT22;69565;37.974;23.708;2023-08-01T12:12:31;32.30;37.40
80258;DHT22;69565;37.974;23.708;2023-08-01T12:14:57;32.20;37.40
80258;DHT22;69565;37.974;23.708;2023-08-01T12:17:23;32.20;37.60
80258;DHT22;69565;37.974;23.708;2023-08-01T12:19:49;32.20;37.80
80258;DHT22;69565;37.974;23.708;2023-08-01T12:22:14;32.10;37.90
80258;DHT22;69565;37.974;23.708;2023-08-01T12:24:40;32.20;38.00
80258;DHT22;69565;37.974;23.708;2023-08-01T12:27:08;32.10;37.90
80258;DHT22;69565;37.974;23.708;2023-08-01T12:29:33;32.10;37.80
80258;DHT22;69565;37.974;23.708;2023-08-01T12:31:59;32.10;37.70
80258;DHT22;69565;37.974;23.708;2023-08-01T12:34:25;32.00;37.40
80258;DHT22;69565;37.974;23.708;2023-08-01T12:36:51;32.00;37.40
80258;DHT22;69565;37.974;23.708;2023-08-01T12:39:16;32.00;38.20
80258;DHT22;69565;37.974;23.708;2023-08-01T12:41:42;32.00;37.00
80258;DHT22;69565;37.974;23.708;2023-08-01T12:44:08;31.90;36.80
80258;DHT22;69565;37.974;23.708;2023-08-01T12:46:33;31.90;36.60
80258;DHT22;69565;37.974;23.708;2023-08-01T12:48:59;31.90;36.50
80258;DHT22;69565;37.974;23.708;2023-08-01T12:51:25;31.80;36.30
80258;DHT22;69565;37.974;23.708;2023-08-01T12:53:50;31.80;36.10
80258;DHT22;69565;37.974;23.708;2023-08-01T12:56:16;31.80;36.00
80258;DHT22;69565;37.974;23.708;2023-08-01T12:58:42;31.80;36.10
80258;DHT22;69565;37.974;23.708;2023-08-01T13:01:08;31.70;35.90
80258;DHT22;69565;37.974;23.708;2023-08-01T13:03:33;31.80;35.90
80258;DHT22;69565;37.974;23.708;2023-08-01T13:05:59;31.70;35.70
80258;DHT22;69565;37.974;23.708;2023-08-01T13:08:25;31.70;35.80
80258;DHT22;69565;37.974;23.708;2023-08-01T13:10:52;31.70;35.70
80258;DHT22;69565;37.974;23.708;2023-08-01T13:13:17;31.70;35.70
80258;DHT22;69565;37.974;23.708;2023-08-01T13:15:43;31.60;35.70
80258;DHT22;69565;37.974;23.708;2023-08-01T13:18:10;31.50;35.70
80258;DHT22;69565;37.974;23.708;2023-08-01T13:20:36;31.60;35.70
80258;DHT22;69565;37.974;23.708;2023-08-01T13:23:02;31.50;35.50
80258;DHT22;69565;37.974;23.708;2023-08-01T13:25:28;31.60;35.50
80258;DHT22;69565;37.974;23.708;2023-08-01T13:27:54;31.60;35.40
80258;DHT22;69565;37.974;23.708;2023-08-01T13:30:20;31.60;35.30
80258;DHT22;69565;37.974;23.708;2023-08-01T13:32:46;31.60;35.30
80258;DHT22;69565;37.974;23.708;2023-08-01T13:35:12;31.60;35.10
80258;DHT22;69565;37.974;23.708;2023-08-01T13:37:38;31.60;35.00
80258;DHT22;69565;37.974;23.708;2023-08-01T13:40:04;31.60;35.00
80258;DHT22;69565;37.974;23.708;2023-08-01T13:42:31;31.60;35.00
80258;DHT22;69565;37.974;23.708;2023-08-01T13:44:57;31.60;34.90
80258;DHT22;69565;37.974;23.708;2023-08-01T13:47:23;31.60;34.90
80258;DHT22;69565;37.974;23.708;2023-08-01T13:49:48;31.60;34.90
80258;DHT22;69565;37.974;23.708;2023-08-01T13:52:14;31.60;34.80
80258;DHT22;69565;37.974;23.708;2023-08-01T13:54:40;31.60;34.80
80258;DHT22;69565;37.974;23.708;2023-08-01T13:57:06;31.70;34.90
80258;DHT22;69565;37.974;23.708;2023-08-01T13:59:32;31.70;34.90
80258;DHT22;69565;37.974;23.708;2023-08-01T14:01:57;31.60;34.80
80258;DHT22;69565;37.974;23.708;2023-08-01T14:04:23;31.60;34.80
80258;DHT22;69565;37.974;23.708;2023-08-01T14:06:49;31.70;34.90
80258;DHT22;69565;37.974;23.708;2023-08-01T14:09:14;31.60;34.70
80258;DHT22;69565;37.974;23.708;2023-08-01T14:11:40;31.60;34.80
80258;DHT22;69565;37.974;23.708;2023-08-01T14:14:06;31.60;34.80
80258;DHT22;69565;37.974;23.708;2023-08-01T14:16:32;31.70;34.90
80258;DHT22;69565;37.974;23.708;2023-08-01T14:19:01;31.70;34.80
80258;DHT22;69565;37.974;23.708;2023-08-01T14:21:29;31.70;35.90
80258;DHT22;69565;37.974;23.708;2023-08-01T14:23:54;31.60;34.80
80258;DHT22;69565;37.974;23.708;2023-08-01T14:26:20;31.50;34.80
80258;DHT22;69565;37.974;23.708;2023-08-01T14:28:46;31.50;34.80
80258;DHT22;69565;37.974;23.708;2023-08-01T14:31:12;31.50;35.00
80258;DHT22;69565;37.974;23.708;2023-08-01T14:33:38;31.50;34.90
80258;DHT22;69565;37.974;23.708;2023-08-01T14:36:08;31.50;34.90
80258;DHT22;69565;37.974;23.708;2023-08-01T14:38:33;31.50;34.90
80258;DHT22;69565;37.974;23.708;2023-08-01T14:41:02;31.50;35.00
80258;DHT22;69565;37.974;23.708;2023-08-01T14:43:27;31.50;35.00
80258;DHT22;69565;37.974;23.708;2023-08-01T14:45:53;31.60;35.10
80258;DHT22;69565;37.974;23.708;2023-08-01T14:48:18;31.50;35.00
80258;DHT22;69565;37.974;23.708;2023-08-01T14:50:46;31.50;35.10
80258;DHT22;69565;37.974;23.708;2023-08-01T14:53:12;31.50;35.30
80258;DHT22;69565;37.974;23.708;2023-08-01T14:55:37;31.50;35.30
80258;DHT22;69565;37.974;23.708;2023-08-01T14:58:03;31.50;35.40
80258;DHT22;69565;37.974;23.708;2023-08-01T15:00:34;31.50;35.30
80258;DHT22;69565;37.974;23.708;2023-08-01T15:03:00;31.50;35.30
80258;DHT22;69565;37.974;23.708;2023-08-01T15:05:25;31.50;35.30
80258;DHT22;69565;37.974;23.708;2023-08-01T15:07:51;31.50;36.70
80258;DHT22;69565;37.974;23.708;2023-08-01T15:10:17;31.50;37.10
80258;DHT22;69565;37.974;23.708;2023-08-01T15:12:43;31.50;36.80
80258;DHT22;69565;37.974;23.708;2023-08-01T15:15:09;31.50;36.60